createdAt,value
2023-04-13T00:01:52.236Z,4.59
2023-04-13T00:04:23.444Z,4.43
2023-04-13T00:06:53.061Z,4.42
2023-04-13T00:09:26.107Z,4.39
2023-04-13T00:11:55.640Z,4.37
2023-04-13T00:14:28.603Z,4.29
2023-04-13T00:16:58.173Z,4.32
2023-04-13T00:19:28.685Z,4.36
2023-04-13T00:21:59.412Z,4.35
2023-04-13T00:24:31.593Z,4.36
2023-04-13T00:27:01.312Z,4.41
2023-04-13T00:29:31.084Z,4.33
2023-04-13T00:32:01.468Z,4.29
2023-04-13T00:34:31.029Z,4.32
2023-04-13T00:37:02.253Z,4.49
2023-04-13T00:39:35.181Z,4.43
2023-04-13T00:42:05.487Z,4.29
2023-04-13T00:44:35.053Z,4.34
2023-04-13T00:47:05.364Z,4.30
2023-04-13T00:49:36.228Z,4.26
2023-04-13T00:52:08.498Z,4.34
2023-04-13T00:54:41.038Z,4.39
2023-04-13T00:57:10.729Z,4.44
2023-04-13T00:59:40.615Z,4.52
2023-04-13T01:02:10.408Z,4.35
2023-04-13T01:04:41.637Z,4.24
2023-04-13T01:07:16.061Z,4.09
2023-04-13T01:09:52.629Z,4.14
2023-04-13T01:12:31.104Z,4.22
2023-04-13T01:15:03.271Z,4.18
2023-04-13T01:17:34.356Z,4.18
2023-04-13T01:20:08.391Z,4.24
2023-04-13T01:22:38.866Z,4.39
2023-04-13T01:25:30.665Z,4.59
2023-04-13T01:28:03.998Z,4.39
2023-04-13T01:30:34.003Z,4.37
2023-04-13T01:33:04.889Z,4.38
2023-04-13T01:35:35.166Z,4.15
2023-04-13T01:38:04.658Z,4.15
2023-04-13T01:40:35.304Z,4.05
2023-04-13T01:43:07.607Z,4.28
2023-04-13T01:45:39.823Z,4.37
2023-04-13T01:48:13.731Z,4.31
2023-04-13T01:50:44.974Z,4.10
2023-04-13T01:53:18.880Z,4.18
2023-04-13T01:55:49.134Z,4.07
2023-04-13T01:58:21.332Z,3.94
2023-04-13T02:00:51.226Z,3.83
2023-04-13T02:03:22.795Z,3.71
2023-04-13T02:05:53.125Z,3.74
2023-04-13T02:08:22.671Z,3.72
2023-04-13T02:10:52.143Z,3.53
2023-04-13T02:13:24.360Z,3.58
2023-04-13T02:15:53.946Z,3.53
2023-04-13T02:18:24.030Z,3.50
2023-04-13T02:21:08.184Z,3.51
2023-04-13T02:23:39.228Z,3.44
2023-04-13T02:26:10.331Z,3.40
2023-04-13T02:28:43.150Z,3.33
2023-04-13T02:31:20.634Z,3.31
2023-04-13T02:33:51.895Z,3.27
2023-04-13T02:36:21.985Z,3.26
2023-04-13T02:38:51.508Z,3.21
2023-04-13T02:41:23.323Z,3.17
2023-04-13T02:43:56.027Z,3.28
2023-04-13T02:46:25.784Z,3.45
2023-04-13T02:48:55.345Z,3.39
2023-04-13T02:51:24.863Z,3.26
2023-04-13T02:53:57.810Z,3.35
2023-04-13T02:56:28.611Z,3.26
2023-04-13T02:59:00.848Z,3.32
2023-04-13T03:01:30.374Z,3.50
2023-04-13T03:04:00.638Z,3.52
2023-04-13T03:06:31.390Z,3.55
2023-04-13T03:09:01.054Z,3.44
2023-04-13T03:11:30.685Z,3.50
2023-04-13T03:14:02.881Z,3.44
2023-04-13T03:16:32.413Z,3.54
2023-04-13T03:19:01.976Z,3.47
2023-04-13T03:21:31.554Z,3.46
2023-04-13T03:24:01.171Z,3.43
2023-04-13T03:26:30.722Z,3.24
2023-04-13T03:29:02.782Z,3.50
2023-04-13T03:31:32.453Z,3.63
2023-04-13T03:34:02.019Z,3.54
2023-04-13T03:36:31.661Z,3.60
2023-04-13T03:39:02.020Z,3.56
2023-04-13T03:41:31.562Z,3.46
2023-04-13T03:44:03.599Z,3.61
2023-04-13T03:46:35.508Z,3.32
2023-04-13T03:49:05.158Z,3.34
2023-04-13T03:51:34.675Z,3.55
2023-04-13T03:54:04.238Z,3.65
2023-04-13T03:56:33.855Z,3.67
2023-04-13T03:59:06.702Z,4.50
2023-04-13T04:01:36.231Z,4.47
2023-04-13T04:04:05.989Z,4.64
2023-04-13T04:06:36.012Z,4.57
2023-04-13T04:09:05.567Z,5.02
2023-04-13T04:11:36.461Z,5.02
2023-04-13T04:14:08.605Z,4.95
2023-04-13T04:16:38.173Z,5.19
2023-04-13T04:19:07.821Z,5.10
2023-04-13T04:21:37.301Z,5.22
2023-04-13T04:24:09.012Z,5.20
2023-04-13T04:26:38.596Z,5.38
2023-04-13T04:29:13.960Z,5.25
2023-04-13T04:31:44.585Z,5.38
2023-04-13T04:34:14.187Z,5.35
2023-04-13T04:36:45.638Z,4.91
2023-04-13T04:39:15.529Z,4.31
2023-04-13T04:41:44.999Z,3.98
2023-04-13T04:44:17.318Z,3.76
2023-04-13T04:46:49.284Z,3.69
2023-04-13T04:49:18.811Z,3.87
2023-04-13T04:51:48.370Z,3.90
2023-04-13T04:54:19.890Z,3.68
2023-04-13T04:56:49.725Z,3.43
2023-04-13T04:59:22.408Z,3.59
2023-04-13T05:01:52.518Z,3.54
2023-04-13T05:04:22.100Z,3.42
2023-04-13T05:06:51.830Z,3.56
2023-04-13T05:09:21.758Z,3.47
2023-04-13T05:11:51.439Z,3.40
2023-04-13T05:14:23.622Z,3.51
2023-04-13T05:16:53.243Z,3.63
2023-04-13T05:19:22.854Z,3.50
2023-04-13T05:21:52.345Z,3.50
2023-04-13T05:24:21.920Z,3.70
2023-04-13T05:26:53.227Z,3.80
2023-04-13T05:29:25.808Z,3.91
2023-04-13T05:31:55.472Z,3.92
2023-04-13T05:34:25.118Z,3.94
2023-04-13T05:36:55.675Z,4.04
2023-04-13T05:39:25.428Z,4.10
2023-04-13T05:41:54.909Z,4.05
2023-04-13T05:44:27.040Z,4.13
2023-04-13T05:46:57.112Z,4.14
2023-04-13T05:49:26.727Z,4.10
2023-04-13T05:51:56.888Z,4.20
2023-04-13T05:54:26.458Z,4.20
2023-04-13T05:56:56.819Z,4.36
2023-04-13T05:59:28.971Z,4.52
2023-04-13T06:02:00.345Z,4.56
2023-04-13T06:04:30.104Z,4.61
2023-04-13T06:06:59.788Z,4.81
2023-04-13T06:09:29.277Z,4.90
2023-04-13T06:11:59.303Z,4.85
2023-04-13T06:14:32.103Z,5.14
2023-04-13T06:17:02.057Z,5.05
2023-04-13T06:19:31.906Z,5.04
2023-04-13T06:22:01.614Z,5.07
2023-04-13T06:24:31.172Z,5.00
2023-04-13T06:27:00.667Z,5.10
2023-04-13T06:29:32.817Z,5.04
2023-04-13T06:32:02.405Z,4.84
2023-04-13T06:34:31.944Z,4.84
2023-04-13T06:37:01.443Z,5.03
2023-04-13T06:39:32.898Z,5.11
2023-04-13T06:42:02.660Z,5.17
2023-04-13T06:44:34.819Z,5.21
2023-04-13T06:47:05.951Z,5.06
2023-04-13T06:49:36.495Z,5.03
2023-04-13T06:52:06.027Z,5.34
2023-04-13T06:54:35.562Z,5.08
2023-04-13T06:57:05.136Z,5.15
2023-04-13T06:59:37.259Z,5.27
2023-04-13T07:02:09.896Z,5.12
2023-04-13T07:04:39.777Z,5.19
2023-04-13T07:07:09.858Z,5.23
2023-04-13T07:09:39.938Z,5.30
2023-04-13T07:12:10.071Z,5.43
2023-04-13T07:14:43.344Z,5.50
2023-04-13T07:17:13.437Z,5.46
2023-04-13T07:19:48.033Z,5.62
2023-04-13T07:22:17.688Z,5.68
2023-04-13T07:24:47.195Z,5.77
2023-04-13T07:27:17.193Z,5.78
2023-04-13T07:29:49.407Z,5.85
2023-04-13T07:32:20.865Z,5.81
2023-04-13T07:34:50.844Z,5.88
2023-04-13T07:37:20.375Z,5.92
2023-04-13T07:39:50.304Z,6.16
2023-04-13T07:42:19.814Z,6.16
2023-04-13T07:44:52.686Z,6.17
2023-04-13T07:47:22.204Z,6.16
2023-04-13T07:49:51.682Z,6.01
2023-04-13T07:52:22.697Z,6.24
2023-04-13T07:54:52.203Z,6.20
2023-04-13T07:57:22.494Z,6.28
2023-04-13T07:59:55.243Z,6.25
2023-04-13T08:02:25.720Z,6.26
2023-04-13T08:04:55.649Z,6.42
2023-04-13T08:07:25.255Z,6.43
2023-04-13T08:09:54.798Z,6.55
2023-04-13T08:12:24.347Z,6.56
2023-04-13T08:14:56.561Z,6.44
2023-04-13T08:17:26.490Z,6.57
2023-04-13T08:19:56.050Z,6.50
2023-04-13T08:22:25.607Z,6.58
2023-04-13T08:24:55.085Z,6.66
2023-04-13T08:27:25.535Z,6.53
2023-04-13T08:30:02.427Z,6.58
2023-04-13T08:32:32.240Z,6.64
2023-04-13T08:35:06.927Z,6.56
2023-04-13T08:37:36.506Z,6.62
2023-04-13T08:40:07.988Z,6.79
2023-04-13T08:42:37.982Z,6.69
2023-04-13T08:45:11.425Z,6.68
2023-04-13T08:47:43.182Z,6.75
2023-04-13T08:50:13.833Z,6.82
2023-04-13T08:52:43.330Z,6.92
2023-04-13T08:55:12.892Z,7.00
2023-04-13T08:57:43.279Z,7.00
2023-04-13T09:00:18.123Z,7.01
2023-04-13T09:03:03.826Z,7.06
2023-04-13T09:05:41.567Z,7.12
2023-04-13T09:08:12.628Z,7.21
2023-04-13T09:10:42.366Z,7.24
2023-04-13T09:13:11.829Z,7.34
2023-04-13T09:15:47.433Z,7.41
2023-04-13T09:18:17.435Z,7.42
2023-04-13T09:20:47.041Z,7.49
2023-04-13T09:23:20.022Z,7.48
2023-04-13T09:25:50.586Z,7.64
2023-04-13T09:28:21.421Z,7.67
2023-04-13T09:30:53.600Z,7.88
2023-04-13T09:33:23.506Z,7.82
2023-04-13T09:35:53.033Z,7.74
2023-04-13T09:38:22.516Z,7.86
2023-04-13T09:40:54.469Z,7.97
2023-04-13T09:43:24.084Z,7.82
2023-04-13T09:45:56.528Z,7.87
2023-04-13T09:48:26.610Z,7.96
2023-04-13T09:51:04.581Z,7.99
2023-04-13T09:53:42.983Z,8.09
2023-04-13T09:56:12.573Z,8.28
2023-04-13T09:58:46.087Z,8.27
2023-04-13T10:01:18.234Z,8.19
2023-04-13T10:03:47.981Z,8.29
2023-04-13T10:06:17.847Z,8.34
2023-04-13T10:08:47.352Z,8.38
2023-04-13T10:11:17.749Z,8.53
2023-04-13T10:13:52.518Z,8.57
2023-04-13T10:16:46.085Z,8.33
2023-04-13T10:19:16.904Z,8.35
2023-04-13T10:21:47.864Z,8.28
2023-04-13T10:24:18.132Z,8.27
2023-04-13T10:26:47.815Z,8.31
2023-04-13T10:29:18.145Z,8.38
2023-04-13T10:31:54.237Z,8.38
2023-04-13T10:34:28.205Z,8.42
2023-04-13T10:36:58.604Z,8.49
2023-04-13T10:39:28.791Z,8.48
2023-04-13T10:42:03.160Z,8.48
2023-04-13T10:44:44.256Z,8.65
2023-04-13T10:47:17.243Z,8.44
2023-04-13T10:49:48.214Z,8.67
2023-04-13T10:52:19.018Z,8.77
2023-04-13T10:54:48.619Z,8.96
2023-04-13T10:57:18.087Z,9.15
2023-04-13T10:59:58.143Z,9.14
2023-04-13T11:02:34.370Z,8.77
2023-04-13T11:05:04.286Z,8.77
2023-04-13T11:07:33.964Z,8.70
2023-04-13T11:10:04.373Z,8.65
2023-04-13T11:12:33.916Z,8.55
2023-04-13T11:15:03.657Z,8.48
2023-04-13T11:17:35.741Z,8.67
2023-04-13T11:20:09.091Z,8.88
2023-04-13T11:22:39.646Z,9.25
2023-04-13T11:25:10.956Z,9.27
2023-04-13T11:27:40.981Z,9.32
2023-04-13T11:30:13.289Z,9.68
2023-04-13T11:32:45.757Z,9.53
2023-04-13T11:35:18.636Z,9.48
2023-04-13T11:37:51.094Z,9.65
2023-04-13T11:40:21.704Z,9.30
2023-04-13T11:42:52.340Z,9.24
2023-04-13T11:45:22.940Z,9.17
2023-04-13T11:47:55.770Z,9.25
2023-04-13T11:50:25.945Z,9.34
2023-04-13T11:52:57.407Z,9.63
2023-04-13T11:55:29.165Z,9.73
2023-04-13T11:57:59.633Z,9.49
2023-04-13T12:00:30.416Z,9.40
2023-04-13T12:03:12.036Z,9.42
2023-04-13T12:05:53.995Z,9.66
2023-04-13T12:08:26.021Z,9.88
2023-04-13T12:13:48.545Z,10.09
2023-04-13T12:17:01.850Z,10.16
2023-04-13T12:19:27.929Z,10.40
2023-04-13T12:21:59.381Z,10.75
2023-04-13T12:24:38.659Z,11.15
2023-04-13T12:29:41.495Z,11.32
2023-04-13T12:32:14.876Z,11.32
2023-04-13T12:34:49.005Z,10.92
2023-04-13T12:37:18.509Z,10.84
2023-04-13T12:39:48.048Z,10.79
2023-04-13T12:42:17.522Z,10.56
2023-04-13T12:44:46.999Z,10.57
2023-04-13T12:47:16.662Z,10.94
2023-04-13T12:49:48.920Z,11.39
2023-04-13T12:52:18.887Z,11.54
2023-04-13T12:54:48.458Z,11.62
2023-04-13T12:57:18.278Z,11.55
2023-04-13T12:59:48.430Z,11.38
2023-04-13T13:02:18.117Z,11.41
2023-04-13T13:04:50.365Z,11.44
2023-04-13T13:07:21.776Z,11.24
2023-04-13T13:09:51.676Z,10.84
2023-04-13T13:12:21.965Z,10.80
2023-04-13T13:14:51.705Z,10.69
2023-04-13T13:17:23.767Z,10.63
2023-04-13T13:19:55.942Z,10.70
2023-04-13T13:22:25.590Z,10.65
2023-04-13T13:24:55.175Z,11.45
2023-04-13T13:29:57.533Z,11.49
2023-04-13T13:32:30.380Z,11.82
2023-04-13T13:35:03.297Z,12.10
2023-04-13T13:37:32.922Z,11.85
2023-04-13T13:40:09.961Z,11.74
2023-04-13T13:42:50.682Z,11.52
2023-04-13T13:45:21.768Z,11.72
2023-04-13T13:47:54.842Z,11.48
2023-04-13T13:50:27.087Z,11.14
2023-04-13T13:53:03.890Z,10.99
2023-04-13T13:55:34.260Z,10.87
2023-04-13T13:58:03.748Z,10.92
2023-04-13T14:00:33.260Z,10.80
2023-04-13T14:03:02.959Z,10.67
2023-04-13T14:05:35.190Z,10.64
2023-04-13T14:08:04.702Z,10.62
2023-04-13T14:10:34.448Z,10.57
2023-04-13T14:13:04.099Z,10.55
2023-04-13T14:15:36.534Z,10.44
2023-04-13T14:18:09.785Z,10.23
2023-04-13T14:20:43.637Z,10.22
2023-04-13T14:23:13.248Z,9.95
2023-04-13T14:25:43.085Z,9.62
2023-04-13T14:28:13.978Z,8.86
2023-04-13T14:30:43.990Z,8.37
2023-04-13T14:33:14.733Z,8.09
2023-04-13T14:35:46.839Z,7.73
2023-04-13T14:38:16.911Z,7.19
2023-04-13T14:40:46.770Z,6.88
2023-04-13T14:43:16.422Z,6.91
2023-04-13T14:45:46.022Z,7.01
2023-04-13T14:48:15.626Z,7.07
2023-04-13T14:50:47.756Z,7.12
2023-04-13T14:53:17.769Z,7.69
2023-04-13T14:55:47.609Z,8.22
2023-04-13T14:58:17.173Z,8.80
2023-04-13T15:00:46.656Z,8.96
2023-04-13T15:03:17.830Z,9.11
2023-04-13T15:05:50.914Z,9.44
2023-04-13T15:08:20.934Z,9.67
2023-04-13T15:10:50.522Z,9.93
2023-04-13T15:13:20.029Z,9.86
2023-04-13T15:15:52.122Z,10.17
2023-04-13T15:18:21.993Z,10.46
2023-04-13T15:20:54.143Z,10.65
2023-04-13T15:23:23.679Z,10.78
2023-04-13T15:25:53.414Z,10.74
2023-04-13T15:28:23.698Z,10.83
2023-04-13T15:30:53.822Z,10.76
2023-04-13T15:33:23.342Z,11.13
2023-04-13T15:35:55.888Z,10.96
2023-04-13T15:38:25.731Z,10.29
2023-04-13T15:40:55.365Z,10.12
2023-04-13T15:43:25.004Z,10.05
2023-04-13T15:45:54.589Z,9.99
2023-04-13T15:48:24.161Z,9.96
2023-04-13T15:51:02.639Z,9.90
2023-04-13T15:53:32.238Z,9.87
2023-04-13T15:56:01.773Z,9.88
2023-04-13T15:58:31.554Z,9.91
2023-04-13T16:01:03.980Z,9.90
2023-04-13T16:03:33.954Z,9.80
2023-04-13T16:06:06.873Z,9.97
2023-04-13T16:08:36.404Z,10.38
2023-04-13T16:11:06.653Z,10.52
2023-04-13T16:13:48.127Z,10.26
2023-04-13T16:16:18.842Z,10.16
2023-04-13T16:18:49.383Z,10.05
2023-04-13T16:21:22.649Z,9.95
2023-04-13T16:23:52.526Z,9.93
2023-04-13T16:26:22.727Z,9.79
2023-04-13T16:28:53.609Z,9.77
2023-04-13T16:31:23.321Z,9.63
2023-04-13T16:33:53.074Z,9.59
2023-04-13T16:36:26.083Z,9.65
2023-04-13T16:38:55.874Z,9.59
2023-04-13T16:41:25.424Z,9.59
2023-04-13T16:43:55.098Z,9.50
2023-04-13T16:46:25.090Z,9.45
2023-04-13T16:48:54.589Z,9.29
2023-04-13T16:51:28.066Z,9.03
2023-04-13T16:53:57.632Z,8.61
2023-04-13T16:56:31.599Z,8.49
2023-04-13T16:59:01.496Z,8.23
2023-04-13T17:01:31.304Z,8.16
2023-04-13T17:04:00.879Z,8.02
2023-04-13T17:06:33.178Z,7.95
2023-04-13T17:09:02.947Z,7.84
2023-04-13T17:11:32.648Z,7.55
2023-04-13T17:14:02.135Z,7.49
2023-04-13T17:16:31.902Z,7.54
2023-04-13T17:19:01.666Z,7.49
2023-04-13T17:21:34.173Z,7.52
2023-04-13T17:24:03.671Z,7.49
2023-04-13T17:26:33.198Z,7.57
2023-04-13T17:29:03.223Z,7.67
2023-04-13T17:31:32.733Z,7.65
2023-04-13T17:34:02.304Z,7.65
2023-04-13T17:36:34.422Z,7.67
2023-04-13T17:39:05.771Z,7.73
2023-04-13T17:41:35.894Z,7.63
2023-04-13T17:44:05.396Z,7.61
2023-04-13T17:46:34.916Z,7.54
2023-04-13T17:49:04.420Z,7.52
2023-04-13T17:51:36.775Z,7.51
2023-04-13T17:54:09.321Z,7.60
2023-04-13T17:56:38.886Z,7.64
2023-04-13T17:59:08.367Z,7.80
2023-04-13T18:01:37.969Z,7.66
2023-04-13T18:04:08.023Z,7.53
2023-04-13T18:06:40.214Z,7.48
2023-04-13T18:09:10.156Z,7.34
2023-04-13T18:11:39.902Z,7.32
2023-04-13T18:14:12.202Z,7.34
2023-04-13T18:16:44.371Z,7.33
2023-04-13T18:19:13.990Z,7.44
2023-04-13T18:21:46.082Z,7.61
2023-04-13T18:24:15.636Z,7.64
2023-04-13T18:26:45.138Z,7.67
2023-04-13T18:29:14.685Z,7.66
2023-04-13T18:31:44.284Z,7.54
2023-04-13T18:34:16.450Z,7.50
2023-04-13T18:36:48.663Z,7.32
2023-04-13T18:39:18.119Z,7.37
2023-04-13T18:41:47.645Z,7.50
2023-04-13T18:44:17.101Z,7.58
2023-04-13T18:46:46.619Z,7.74
2023-04-13T18:49:16.859Z,7.79
2023-04-13T18:51:48.980Z,7.81
2023-04-13T18:54:18.497Z,7.71
2023-04-13T18:56:48.008Z,7.09
2023-04-13T18:59:17.485Z,6.76
2023-04-13T19:01:47.111Z,6.86
2023-04-13T19:04:17.015Z,6.83
2023-04-13T19:06:49.166Z,6.78
2023-04-13T19:09:18.805Z,6.82
2023-04-13T19:11:49.684Z,6.81
2023-04-13T19:14:19.232Z,6.87
2023-04-13T19:16:52.598Z,6.80
2023-04-13T19:19:22.581Z,6.86
2023-04-13T19:21:58.184Z,6.87
2023-04-13T19:24:27.755Z,6.80
2023-04-13T19:26:57.884Z,6.78
2023-04-13T19:29:30.396Z,6.69
2023-04-13T19:32:00.410Z,6.73
2023-04-13T19:34:30.069Z,6.74
2023-04-13T19:37:02.415Z,6.71
2023-04-13T19:39:32.112Z,6.66
2023-04-13T19:42:01.622Z,6.56
2023-04-13T19:44:31.362Z,6.64
2023-04-13T19:47:02.084Z,6.71
2023-04-13T19:49:31.667Z,6.76
2023-04-13T19:52:04.436Z,6.78
2023-04-13T19:54:33.977Z,6.80
2023-04-13T19:57:03.500Z,6.73
2023-04-13T19:59:33.046Z,6.64
2023-04-13T20:02:03.042Z,6.58
2023-04-13T20:04:33.588Z,6.61
2023-04-13T20:07:05.882Z,6.56
2023-04-13T20:09:36.070Z,6.62
2023-04-13T20:12:05.628Z,6.54
2023-04-13T20:14:35.230Z,6.43
2023-04-13T20:17:04.727Z,6.43
2023-04-13T20:19:36.565Z,6.51
2023-04-13T20:22:10.283Z,6.46
2023-04-13T20:24:39.820Z,6.57
2023-04-13T20:27:10.247Z,6.61
2023-04-13T20:29:40.400Z,6.55
2023-04-13T20:32:10.066Z,6.52
2023-04-13T20:34:41.262Z,6.55
2023-04-13T20:37:14.521Z,6.43
2023-04-13T20:39:50.509Z,6.39
2023-04-13T20:42:21.882Z,6.43
2023-04-13T20:44:57.921Z,6.39
2023-04-13T20:47:28.492Z,6.32
2023-04-13T20:50:00.187Z,6.29
2023-04-13T20:52:32.732Z,6.32
2023-04-13T20:55:02.254Z,6.36
2023-04-13T20:57:31.926Z,6.21
2023-04-13T21:00:01.627Z,6.05
2023-04-13T21:02:31.507Z,6.10
2023-04-13T21:05:02.930Z,6.20
2023-04-13T21:07:35.226Z,6.19
2023-04-13T21:10:04.824Z,6.19
2023-04-13T21:12:34.306Z,6.15
2023-04-13T21:15:04.254Z,6.16
2023-04-13T21:17:34.117Z,6.17
2023-04-13T21:20:06.466Z,6.07
2023-04-13T21:22:38.548Z,6.07
2023-04-13T21:25:09.007Z,6.11
2023-04-13T21:27:38.562Z,6.14
2023-04-13T21:30:09.782Z,6.12
2023-04-13T21:32:39.562Z,6.11
2023-04-13T21:35:10.545Z,6.08
2023-04-13T21:37:42.618Z,6.16
2023-04-13T21:40:13.079Z,6.28
2023-04-13T21:42:43.339Z,6.26
2023-04-13T21:45:13.587Z,6.27
2023-04-13T21:47:43.088Z,6.22
2023-04-13T21:50:13.471Z,6.11
2023-04-13T21:52:45.645Z,6.04
2023-04-13T21:55:18.176Z,6.03
2023-04-13T21:57:47.856Z,5.87
2023-04-13T22:00:18.486Z,5.83
2023-04-13T22:02:49.470Z,5.77
2023-04-13T22:05:19.155Z,5.69
2023-04-13T22:07:51.276Z,5.70
2023-04-13T22:10:20.740Z,5.71
2023-04-13T22:12:50.207Z,5.69
2023-04-13T22:15:19.835Z,5.68
2023-04-13T22:17:49.411Z,5.84
2023-04-13T22:20:19.814Z,5.94
2023-04-13T22:22:51.929Z,5.93
2023-04-13T22:25:25.279Z,5.93
2023-04-13T22:27:54.735Z,5.98
2023-04-13T22:30:24.374Z,6.03
2023-04-13T22:32:53.906Z,6.07
2023-04-13T22:35:23.428Z,5.96
2023-04-13T22:37:55.551Z,5.92
2023-04-13T22:40:25.009Z,5.90
2023-04-13T22:42:55.736Z,5.87
2023-04-13T22:45:25.513Z,5.70
2023-04-13T22:47:56.156Z,5.70
2023-04-13T22:50:26.190Z,5.70
2023-04-13T22:52:58.307Z,5.71
2023-04-13T22:55:27.770Z,5.62
2023-04-13T22:57:57.228Z,5.56
2023-04-13T23:00:26.713Z,5.52
2023-04-13T23:02:56.846Z,5.47
2023-04-13T23:05:26.526Z,5.43
2023-04-13T23:07:58.591Z,5.31
2023-04-13T23:10:28.118Z,5.32
2023-04-13T23:12:57.917Z,5.32
2023-04-13T23:15:27.801Z,5.26
2023-04-13T23:17:57.445Z,5.35
2023-04-13T23:20:27.021Z,5.27
2023-04-13T23:22:59.101Z,5.23
2023-04-13T23:25:28.735Z,5.10
2023-04-13T23:27:58.278Z,5.06
2023-04-13T23:30:27.783Z,5.09
2023-04-13T23:32:57.368Z,5.04
2023-04-13T23:35:26.880Z,4.94
2023-04-13T23:37:58.975Z,4.95
2023-04-13T23:40:28.510Z,4.88
2023-04-13T23:42:58.001Z,4.91
2023-04-13T23:45:28.607Z,4.86
2023-04-13T23:47:58.199Z,4.89
2023-04-13T23:50:27.726Z,4.86
2023-04-13T23:52:59.864Z,4.76
2023-04-13T23:55:30.445Z,4.65
2023-04-13T23:57:59.893Z,4.73
